createdAt,value
2019-04-27T00:01:40.635Z,12.10
2019-04-27T00:04:25.478Z,12.27
2019-04-27T00:06:59.986Z,13.17
2019-04-27T00:09:43.214Z,11.27
2019-04-27T00:12:10.298Z,12.07
2019-04-27T00:14:40.823Z,11.83
2019-04-27T00:17:20.975Z,11.80
2019-04-27T00:19:53.405Z,10.87
2019-04-27T00:22:29.979Z,12.23
2019-04-27T00:25:00.298Z,10.50
2019-04-27T00:27:30.448Z,10.97
2019-04-27T00:30:00.979Z,11.97
2019-04-27T00:32:31.189Z,10.50
2019-04-27T00:35:01.340Z,11.00
2019-04-27T00:37:49.812Z,10.50
2019-04-27T00:40:26.390Z,9.57
2019-04-27T00:42:56.601Z,10.20
2019-04-27T00:45:26.955Z,9.50
2019-04-27T00:47:59.662Z,8.67
2019-04-27T00:50:27.809Z,7.33
2019-04-27T00:52:57.861Z,7.07
2019-04-27T00:55:28.533Z,7.23
2019-04-27T00:58:04.190Z,6.90
2019-04-27T01:00:47.743Z,7.00
2019-04-27T01:03:37.115Z,7.00
2019-04-27T01:06:07.713Z,6.70
2019-04-27T01:08:37.821Z,6.50
2019-04-27T01:11:07.983Z,6.10
2019-04-27T01:13:38.169Z,7.07
2019-04-27T01:16:08.640Z,6.73
2019-04-27T01:18:38.762Z,6.70
2019-04-27T01:21:09.250Z,7.90
2019-04-27T01:23:39.385Z,7.40
2019-04-27T01:26:15.667Z,6.83
2019-04-27T01:28:50.056Z,6.77
2019-04-27T01:31:20.592Z,6.77
2019-04-27T01:33:50.798Z,6.13
2019-04-27T01:36:20.983Z,6.17
2019-04-27T01:38:51.200Z,6.70
2019-04-27T01:41:21.396Z,6.03
2019-04-27T01:43:51.567Z,6.20
2019-04-27T01:46:21.716Z,6.13
2019-04-27T01:48:51.938Z,5.87
2019-04-27T01:51:22.097Z,6.33
2019-04-27T01:53:52.276Z,5.63
2019-04-27T01:56:22.660Z,6.07
2019-04-27T01:58:52.951Z,5.73
2019-04-27T02:01:28.808Z,5.97
2019-04-27T02:04:09.541Z,7.20
2019-04-27T02:06:40.066Z,6.23
2019-04-27T02:09:11.378Z,7.10
2019-04-27T02:11:41.647Z,6.40
2019-04-27T02:14:11.930Z,6.83
2019-04-27T02:16:42.319Z,7.60
2019-04-27T02:19:12.851Z,6.77
2019-04-27T02:21:43.100Z,7.47
2019-04-27T02:24:13.340Z,6.40
2019-04-27T02:26:43.507Z,6.97
2019-04-27T02:29:46.289Z,6.40
2019-04-27T02:32:39.760Z,6.53
2019-04-27T02:35:11.767Z,6.93
2019-04-27T02:37:42.073Z,7.03
2019-04-27T02:40:23.197Z,7.13
2019-04-27T02:42:54.644Z,6.67
2019-04-27T02:45:24.327Z,6.53
2019-04-27T02:47:54.509Z,6.50
2019-04-27T02:50:25.070Z,7.10
2019-04-27T02:52:55.534Z,7.50
2019-04-27T02:55:25.909Z,7.40
2019-04-27T02:57:56.320Z,8.10
2019-04-27T03:00:26.517Z,7.80
2019-04-27T03:03:02.225Z,7.50
2019-04-27T03:05:29.986Z,7.70
2019-04-27T03:08:00.485Z,7.37
2019-04-27T03:10:31.996Z,7.57
2019-04-27T03:13:08.312Z,7.73
2019-04-27T03:15:50.669Z,7.30
2019-04-27T03:19:24.665Z,8.13
2019-04-27T03:22:00.642Z,8.03
2019-04-27T03:24:35.355Z,8.07
2019-04-27T03:27:06.005Z,8.00
2019-04-27T03:29:36.322Z,8.57
2019-04-27T03:32:06.073Z,8.10
2019-04-27T03:34:36.498Z,8.37
2019-04-27T03:37:07.075Z,7.80
2019-04-27T03:39:39.705Z,7.70
2019-04-27T03:42:10.148Z,7.70
2019-04-27T03:44:39.886Z,7.53
2019-04-27T03:47:12.207Z,8.27
2019-04-27T03:49:41.519Z,7.93
2019-04-27T03:52:14.296Z,7.93
2019-04-27T03:54:50.352Z,9.40
2019-04-27T03:57:24.570Z,8.73
2019-04-27T03:59:59.713Z,8.50
2019-04-27T04:02:30.197Z,8.80
2019-04-27T04:04:59.618Z,8.10
2019-04-27T04:07:30.005Z,8.50
2019-04-27T04:10:00.200Z,8.53
2019-04-27T04:12:35.835Z,8.80
2019-04-27T04:15:09.799Z,8.73
2019-04-27T04:17:40.031Z,8.90
2019-04-27T04:20:10.230Z,8.90
2019-04-27T04:22:40.354Z,9.00
2019-04-27T04:25:10.718Z,9.67
2019-04-27T04:27:42.355Z,11.20
2019-04-27T04:30:12.276Z,10.90
2019-04-27T04:32:40.783Z,11.03
2019-04-27T04:35:21.525Z,10.83
2019-04-27T04:37:52.798Z,11.00
2019-04-27T04:41:24.661Z,11.77
2019-04-27T04:43:59.999Z,12.07
2019-04-27T04:46:36.418Z,11.33
2019-04-27T04:49:09.223Z,12.33
2019-04-27T04:51:37.196Z,11.67
2019-04-27T04:54:09.517Z,12.63
2019-04-27T04:56:39.303Z,12.93
2019-04-27T04:59:10.076Z,12.80
2019-04-27T05:01:39.882Z,12.80
2019-04-27T05:04:09.222Z,13.17
2019-04-27T05:06:39.673Z,13.33
2019-04-27T05:09:09.864Z,14.07
2019-04-27T05:11:40.427Z,13.90
2019-04-27T05:14:11.069Z,12.67
2019-04-27T05:16:41.468Z,14.13
2019-04-27T05:19:11.709Z,14.07
2019-04-27T05:21:42.035Z,12.87
2019-04-27T05:24:12.678Z,12.20
2019-04-27T05:26:43.191Z,11.50
2019-04-27T05:29:13.749Z,12.53
2019-04-27T05:31:44.349Z,12.33
2019-04-27T05:34:15.020Z,11.93
2019-04-27T05:36:48.497Z,11.67
2019-04-27T05:39:18.130Z,12.90
2019-04-27T05:41:46.557Z,11.57
2019-04-27T05:44:21.884Z,11.03
2019-04-27T05:46:58.956Z,11.03
2019-04-27T05:49:36.365Z,10.83
2019-04-27T05:52:03.738Z,10.80
2019-04-27T05:54:33.905Z,10.87
2019-04-27T05:57:04.051Z,11.17
2019-04-27T05:59:34.275Z,9.80
2019-04-27T06:02:04.605Z,10.47
2019-04-27T06:04:34.848Z,10.30
2019-04-27T06:07:05.240Z,11.37
2019-04-27T06:09:35.493Z,11.23
2019-04-27T06:12:06.021Z,11.20
2019-04-27T06:14:36.165Z,11.00
2019-04-27T06:17:06.270Z,10.17
2019-04-27T06:19:36.737Z,11.30
2019-04-27T06:22:06.841Z,9.60
2019-04-27T06:24:37.318Z,10.43
2019-04-27T06:27:09.298Z,10.83
2019-04-27T06:29:40.581Z,10.50
2019-04-27T06:32:09.025Z,10.10
2019-04-27T06:34:39.046Z,10.10
2019-04-27T06:37:09.560Z,9.17
2019-04-27T06:39:39.074Z,8.40
2019-04-27T06:42:16.656Z,8.17
2019-04-27T06:44:40.249Z,8.17
2019-04-27T06:47:10.397Z,7.70
2019-04-27T06:49:40.586Z,7.77
2019-04-27T06:52:11.172Z,6.80
2019-04-27T06:55:12.421Z,7.17
2019-04-27T06:57:42.147Z,6.67
2019-04-27T07:00:12.758Z,7.07
2019-04-27T07:02:43.326Z,6.67
2019-04-27T07:05:14.007Z,7.37
2019-04-27T07:07:44.614Z,7.30
2019-04-27T07:10:15.146Z,8.37
2019-04-27T07:12:45.629Z,7.70
2019-04-27T07:15:15.559Z,7.70
2019-04-27T07:17:45.622Z,7.40
2019-04-27T07:21:40.241Z,8.20
2019-04-27T07:24:10.580Z,8.70
2019-04-27T07:26:40.690Z,9.07
2019-04-27T07:29:10.985Z,9.07
2019-04-27T07:31:41.114Z,8.93
2019-04-27T07:34:11.389Z,7.87
2019-04-27T07:36:41.666Z,7.60
2019-04-27T07:39:12.342Z,8.03
2019-04-27T07:41:42.988Z,6.90
2019-04-27T07:44:19.463Z,7.43
2019-04-27T07:46:53.764Z,6.77
2019-04-27T07:49:24.201Z,6.40
2019-04-27T07:51:54.850Z,5.70
2019-04-27T07:54:25.142Z,5.33
2019-04-27T07:56:55.676Z,4.80
2019-04-27T07:59:26.042Z,4.37
2019-04-27T08:01:56.644Z,4.60
2019-04-27T08:04:26.740Z,3.57
2019-04-27T08:06:57.261Z,4.17
2019-04-27T08:09:29.066Z,4.20
2019-04-27T08:11:58.646Z,3.60
2019-04-27T08:14:28.591Z,4.10
2019-04-27T08:16:58.715Z,3.80
2019-04-27T08:19:29.485Z,4.00
2019-04-27T08:22:01.539Z,3.90
2019-04-27T08:24:30.335Z,4.30
2019-04-27T08:27:05.703Z,4.13
2019-04-27T08:29:41.968Z,4.03
2019-04-27T08:32:15.518Z,4.60
2019-04-27T08:34:45.997Z,3.90
2019-04-27T08:37:16.574Z,4.57
2019-04-27T08:39:46.981Z,4.53
2019-04-27T08:42:19.248Z,5.10
2019-04-27T08:44:49.690Z,4.40
2019-04-27T08:47:19.514Z,5.07
2019-04-27T08:49:49.171Z,5.40
2019-04-27T08:52:19.373Z,5.47
2019-04-27T08:54:51.107Z,4.73
2019-04-27T08:57:19.847Z,5.70
2019-04-27T08:59:51.105Z,6.03
2019-04-27T09:02:20.697Z,6.93
2019-04-27T09:05:26.339Z,7.23
2019-04-27T09:08:02.398Z,7.00
2019-04-27T09:10:40.910Z,7.23
2019-04-27T09:13:19.474Z,8.27
2019-04-27T09:15:54.769Z,8.13
2019-04-27T09:18:26.439Z,8.17
2019-04-27T09:20:59.108Z,7.10
2019-04-27T10:22:18.397Z,11.03
2019-04-27T11:23:47.593Z,9.57
2019-04-27T11:26:18.074Z,10.03
2019-04-27T11:28:48.607Z,9.23
2019-04-27T11:31:18.999Z,8.33
2019-04-27T11:33:49.711Z,8.03
2019-04-27T11:36:25.574Z,8.07
2019-04-27T11:38:56.527Z,8.77
2019-04-27T11:41:26.417Z,8.90
2019-04-27T11:43:56.982Z,8.37
2019-04-27T11:46:27.422Z,8.13
2019-04-27T11:48:58.402Z,8.70
2019-04-27T11:51:27.660Z,8.00
2019-04-27T11:53:58.093Z,7.50
2019-04-27T11:56:28.473Z,7.30
2019-04-27T11:58:59.055Z,7.33
2019-04-27T12:01:29.451Z,7.80
2019-04-27T12:03:59.819Z,7.40
2019-04-27T12:06:30.119Z,7.23
2019-04-27T12:09:00.577Z,7.47
2019-04-27T12:11:31.593Z,7.20
2019-04-27T12:14:02.031Z,7.67
2019-04-27T12:16:32.150Z,7.80
2019-04-27T12:19:02.764Z,8.40
2019-04-27T12:21:33.142Z,9.53
2019-04-27T12:24:03.522Z,8.13
2019-04-27T12:26:38.755Z,8.73
2019-04-27T12:29:10.928Z,8.10
2019-04-27T12:31:46.258Z,7.50
2019-04-27T12:34:13.466Z,8.23
2019-04-27T12:36:45.838Z,8.67
2019-04-27T12:39:15.667Z,9.00
2019-04-27T12:41:46.181Z,8.60
2019-04-27T12:45:43.417Z,8.67
2019-04-27T12:48:10.795Z,9.20
2019-04-27T12:50:41.385Z,8.30
2019-04-27T12:53:15.362Z,8.77
2019-04-27T12:56:02.602Z,8.77
2019-04-27T12:58:50.954Z,8.60
2019-04-27T13:01:21.666Z,8.10
2019-04-27T13:03:52.077Z,8.30
2019-04-27T13:06:22.536Z,7.67
2019-04-27T13:08:52.935Z,7.60
2019-04-27T13:11:23.344Z,8.00
2019-04-27T13:13:57.236Z,8.40
2019-04-27T13:16:26.877Z,8.93
2019-04-27T13:18:57.483Z,8.70
2019-04-27T13:21:26.324Z,8.60
2019-04-27T13:24:03.963Z,8.60
2019-04-27T13:26:26.976Z,8.80
2019-04-27T13:28:58.312Z,8.43
2019-04-27T13:31:27.832Z,7.93
2019-04-27T13:33:58.252Z,8.70
2019-04-27T13:49:49.132Z,7.97
2019-04-27T13:52:26.753Z,8.33
2019-04-27T13:54:55.769Z,7.80
2019-04-27T13:57:26.614Z,8.23
2019-04-27T13:59:56.470Z,8.00
2019-04-27T14:02:32.065Z,8.97
2019-04-27T14:04:57.558Z,7.97
2019-04-27T14:07:27.968Z,9.00
2019-04-27T14:10:00.036Z,7.27
2019-04-27T14:12:28.597Z,7.53
2019-04-27T14:14:59.149Z,7.43
2019-04-27T14:17:29.382Z,7.60
2019-04-27T14:19:59.578Z,6.53
2019-04-27T14:22:31.517Z,7.20
2019-04-27T14:24:59.780Z,6.90
2019-04-27T14:27:33.001Z,6.83
2019-04-27T14:30:03.205Z,7.50
2019-04-27T14:32:33.458Z,7.10
2019-04-27T14:35:04.045Z,6.67
2019-04-27T14:37:34.523Z,6.30
2019-04-27T14:40:05.386Z,6.50
2019-04-27T14:42:35.505Z,11.33
2019-04-27T14:45:06.274Z,7.00
2019-04-27T14:47:39.654Z,6.77
2019-04-27T14:50:08.725Z,6.00
2019-04-27T14:52:40.550Z,6.13
2019-04-27T14:55:08.578Z,6.17
2019-04-27T14:57:39.463Z,6.13
2019-04-27T15:00:10.233Z,5.97
2019-04-27T15:02:40.148Z,6.00
2019-04-27T15:05:10.457Z,8.57
2019-04-27T15:07:41.033Z,6.90
2019-04-27T15:10:11.765Z,8.67
2019-04-27T15:12:42.302Z,5.70
2019-04-27T15:15:12.989Z,5.80
2019-04-27T15:17:43.392Z,5.23
2019-04-27T15:20:17.810Z,5.80
2019-04-27T15:22:52.490Z,5.23
2019-04-27T15:25:20.142Z,5.00
2019-04-27T15:27:52.334Z,4.80
2019-04-27T15:30:27.297Z,4.93
2019-04-27T15:33:10.384Z,5.20
2019-04-27T15:35:44.001Z,4.83
2019-04-27T15:38:18.611Z,5.13
2019-04-27T15:40:54.403Z,5.23
2019-04-27T15:43:27.322Z,5.10
2019-04-27T15:45:57.735Z,4.20
2019-04-27T15:48:30.585Z,4.07
2019-04-27T15:51:02.861Z,5.13
2019-04-27T15:53:28.478Z,4.10
2019-04-27T15:56:01.753Z,4.10
2019-04-27T15:58:29.637Z,4.43
2019-04-27T16:01:01.018Z,4.33
2019-04-27T16:03:31.348Z,4.43
2019-04-27T16:06:03.321Z,4.47
2019-04-27T16:08:31.552Z,4.77
2019-04-27T16:11:02.049Z,4.30
2019-04-27T16:13:33.195Z,5.10
2019-04-27T16:16:03.440Z,5.50
2019-04-27T16:18:33.763Z,4.90
2019-04-27T16:21:07.189Z,5.60
2019-04-27T16:23:39.922Z,4.60
2019-04-27T16:26:10.199Z,4.77
2019-04-27T16:28:35.437Z,4.17
2019-04-27T16:31:06.025Z,3.80
2019-04-27T16:33:36.425Z,4.10
2019-04-27T16:36:07.349Z,4.30
2019-04-27T16:38:45.469Z,5.17
2019-04-27T16:41:15.945Z,6.47
2019-04-27T16:43:46.322Z,7.17
2019-04-27T16:46:16.733Z,4.77
2019-04-27T16:48:46.458Z,7.97
2019-04-27T16:51:18.352Z,7.40
2019-04-27T16:53:47.260Z,5.83
2019-04-27T16:56:20.471Z,5.40
2019-04-27T16:58:55.911Z,4.87
2019-04-27T17:01:23.335Z,4.30
2019-04-27T17:03:54.209Z,5.00
2019-04-27T17:06:24.874Z,4.70
2019-04-27T17:08:57.385Z,5.07
2019-04-27T17:11:26.062Z,4.90
2019-04-27T17:14:01.990Z,5.63
2019-04-27T17:16:39.585Z,4.73
2019-04-27T17:19:19.314Z,4.97
2019-04-27T17:21:49.653Z,5.03
2019-04-27T17:24:25.066Z,4.70
2019-04-27T17:26:55.505Z,5.03
2019-04-27T17:29:25.573Z,5.07
2019-04-27T17:31:58.357Z,5.03
2019-04-27T17:34:28.457Z,4.80
2019-04-27T17:36:58.840Z,5.57
2019-04-27T17:39:29.573Z,5.50
2019-04-27T17:41:58.551Z,4.90
2019-04-27T17:44:28.902Z,10.50
2019-04-27T17:46:58.958Z,12.00
2019-04-27T17:49:29.543Z,5.90
2019-04-27T17:51:59.889Z,5.63
2019-04-27T17:54:30.290Z,5.50
2019-04-27T17:57:00.638Z,5.80
2019-04-27T17:59:31.168Z,5.87
2019-04-27T18:02:04.700Z,6.23
2019-04-27T18:04:32.889Z,8.17
2019-04-27T18:07:03.443Z,7.33
2019-04-27T18:09:33.453Z,7.43
2019-04-27T18:12:03.238Z,6.63
2019-04-27T18:14:39.506Z,6.87
2019-04-27T18:17:07.896Z,6.63
2019-04-27T18:19:40.276Z,6.83
2019-04-27T18:22:09.429Z,7.00
2019-04-27T18:24:43.099Z,7.53
2019-04-27T18:28:20.613Z,10.73
2019-04-27T18:31:05.764Z,15.60
2019-04-27T18:33:37.160Z,15.47
2019-04-27T18:36:13.114Z,14.63
2019-04-27T18:38:39.066Z,15.07
2019-04-27T18:41:11.523Z,20.17
2019-04-27T18:43:40.589Z,26.60
2019-04-27T18:46:09.088Z,28.50
2019-04-27T18:49:10.360Z,25.97
2019-04-27T18:51:59.396Z,27.63
2019-04-27T18:54:24.220Z,27.63
2019-04-27T18:57:02.047Z,32.70
2019-04-27T18:59:25.124Z,31.40
2019-04-27T19:01:57.934Z,21.30
2019-04-27T19:04:28.155Z,16.87
2019-04-27T19:06:58.509Z,15.43
2019-04-27T19:09:27.426Z,16.03
2019-04-27T19:11:57.532Z,20.90
2019-04-27T19:14:28.236Z,20.20
2019-04-27T19:16:58.789Z,28.47
2019-04-27T19:19:28.441Z,33.17
2019-04-27T19:21:59.050Z,56.60
2019-04-27T19:24:29.420Z,37.23
2019-04-27T19:27:16.213Z,29.17
2019-04-27T19:29:41.334Z,23.90
2019-04-27T19:32:11.801Z,28.80
2019-04-27T19:34:42.181Z,33.97
2019-04-27T19:37:12.270Z,33.87
2019-04-27T19:39:42.880Z,35.43
2019-04-27T19:42:13.044Z,19.17
2019-04-27T19:44:43.474Z,17.80
2019-04-27T19:47:13.815Z,27.17
2019-04-27T19:49:44.334Z,24.93
2019-04-27T19:52:14.834Z,13.23
2019-04-27T19:54:45.287Z,15.70
2019-04-27T19:57:28.727Z,14.80
2019-04-27T19:59:49.642Z,15.23
2019-04-27T20:02:21.146Z,14.77
2019-04-27T20:04:55.641Z,22.60
2019-04-27T20:07:26.092Z,16.07
2019-04-27T20:09:58.498Z,14.10
2019-04-27T20:12:28.960Z,17.97
2019-04-27T20:14:59.638Z,22.90
2019-04-27T20:17:31.518Z,17.67
2019-04-27T20:20:02.223Z,15.97
2019-04-27T20:22:32.644Z,15.57
2019-04-27T20:25:03.195Z,15.63
2019-04-27T20:27:44.954Z,14.87
2019-04-27T20:30:04.704Z,14.63
2019-04-27T20:32:34.537Z,13.47
2019-04-27T20:35:05.126Z,14.17
2019-04-27T20:37:35.614Z,13.93
2019-04-27T20:40:06.768Z,14.50
2019-04-27T20:42:37.188Z,14.53
2019-04-27T20:45:07.516Z,15.03
2019-04-27T20:47:38.120Z,15.83
2019-04-27T20:50:08.563Z,16.80
2019-04-27T20:52:54.560Z,16.43
2019-04-27T20:55:25.198Z,14.93
2019-04-27T20:58:01.705Z,15.03
2019-04-27T21:00:25.938Z,15.63
2019-04-27T21:04:21.713Z,16.27
2019-04-27T21:06:56.390Z,16.00
2019-04-27T21:09:26.864Z,14.60
2019-04-27T21:11:57.058Z,14.37
2019-04-27T21:14:27.176Z,15.03
2019-04-27T21:16:57.338Z,14.80
2019-04-27T21:19:28.573Z,14.20
2019-04-27T21:22:01.097Z,14.60
2019-04-27T21:24:31.138Z,13.80
2019-04-27T21:27:00.007Z,12.93
2019-04-27T21:29:31.128Z,14.87
2019-04-27T21:32:01.135Z,15.10
2019-04-27T21:34:31.252Z,13.63
2019-04-27T21:37:01.753Z,13.50
2019-04-27T21:39:31.993Z,13.10
2019-04-27T21:42:02.462Z,14.33
2019-04-27T21:44:32.969Z,13.43
2019-04-27T21:47:03.623Z,13.60
2019-04-27T21:49:34.049Z,14.13
2019-04-27T21:52:08.439Z,16.63
2019-04-27T21:54:38.919Z,16.77
2019-04-27T21:57:12.464Z,15.30
2019-04-27T21:59:40.748Z,13.00
2019-04-27T22:02:12.108Z,14.00
2019-04-27T22:04:42.216Z,14.13
2019-04-27T22:07:12.717Z,14.47
2019-04-27T22:09:43.514Z,13.90
2019-04-27T22:12:13.915Z,13.60
2019-04-27T22:14:44.333Z,15.93
2019-04-27T22:17:14.832Z,14.90
2019-04-27T22:19:45.475Z,15.17
2019-04-27T22:22:21.144Z,16.40
2019-04-27T22:24:51.327Z,16.23
2019-04-27T22:27:21.325Z,14.13
2019-04-27T22:29:52.741Z,13.73
2019-04-27T22:32:22.218Z,13.47
2019-04-27T22:34:52.637Z,13.53
2019-04-27T22:37:23.132Z,13.50
2019-04-27T22:40:03.476Z,12.03
2019-04-27T22:42:39.022Z,11.90
2019-04-27T22:45:13.745Z,12.80
2019-04-27T22:47:44.582Z,11.63
2019-04-27T22:50:15.035Z,12.50
2019-04-27T22:52:45.905Z,12.97
2019-04-27T22:55:16.366Z,12.40
2019-04-27T22:57:51.564Z,13.43
2019-04-27T23:01:26.242Z,13.10
2019-04-27T23:03:57.045Z,12.50
2019-04-27T23:06:27.592Z,12.77
2019-04-27T23:08:58.139Z,11.90
2019-04-27T23:11:28.543Z,12.30
2019-04-27T23:14:00.909Z,12.37
2019-04-27T23:16:30.861Z,12.53
2019-04-27T23:19:01.854Z,11.77
2019-04-27T23:21:31.411Z,11.07
2019-04-27T23:24:02.720Z,11.17
2019-04-27T23:26:33.133Z,11.10
2019-04-27T23:29:13.069Z,11.77
2019-04-27T23:31:40.802Z,11.67
2019-04-27T23:34:11.682Z,11.53
2019-04-27T23:36:42.346Z,12.03
2019-04-27T23:39:11.903Z,11.50
2019-04-27T23:41:41.746Z,12.00
2019-04-27T23:44:12.329Z,11.27
2019-04-27T23:46:42.927Z,12.37
2019-04-27T23:49:13.321Z,10.73
2019-04-27T23:51:53.764Z,11.13
2019-04-27T23:54:24.218Z,15.70
2019-04-27T23:56:54.589Z,14.97
2019-04-27T23:59:25.449Z,12.30
